^^
Your Local Weather - Clay, NY Station Historical Data
Daily Summary for April 14, 2017 Units:  Metric    English   Both
« Previous Day
Next Day »
Daily Weekly Monthly Yearly Custom
  High: Low: Average:
Temperature: 16.8 °C -2.4 °C 7.7 °C
Dew Point: 1.1 °C -6.8 °C -2.9 °C
Humidity: 89% 23% 53%
Wind Speed: 8km/h 0km/h 1.9km/h
Wind Gust: 16.1km/h - -
Wind- - SSW
Pressure: 1030.4 hPa 1026.3 hPa -
Precipitation: 0 mm    
Historical Graphs
 
 
Tabular Data for April 14, 2017
Time Temperature Dew Point Pressure Wind Wind Speed Wind Gust Humidity Rainfall Rate (Hourly) solar
00:00 0.9 °C -3 °C 1028.3 hPa Calm     75% 0 mm 0 W/m2
00:05 0.8 °C -3.1 °C 1028.3 hPa Calm     75% 0 mm 0 W/m2
00:12 0.8 °C -3.2 °C 1028.3 hPa Calm     75% 0 mm 0 W/m2
00:18 0.7 °C -3.2 °C 1028.3 hPa Calm     75% 0 mm 0 W/m2
00:24 0.6 °C -3.1 °C 1028.7 hPa Calm     76% 0 mm 0 W/m2
00:29 0.6 °C -3.2 °C 1028.7 hPa Calm     76% 0 mm 0 W/m2
00:36 0.4 °C -3.3 °C 1028.7 hPa Calm     76% 0 mm 0 W/m2
00:42 0.3 °C -3.2 °C 1028.7 hPa Calm     77% 0 mm 0 W/m2
00:48 0.2 °C -3.2 °C 1028.7 hPa Calm     78% 0 mm 0 W/m2
00:54 0.1 °C -3.2 °C 1029 hPa Calm     79% 0 mm 0 W/m2
01:00 -0.1 °C -3.3 °C 1029 hPa Calm     79% 0 mm 0 W/m2
01:06 -0.1 °C -3.3 °C 1029 hPa Calm     79% 0 mm 0 W/m2
01:12 -0.2 °C -3.2 °C 1029 hPa Calm     80% 0 mm 0 W/m2
01:18 -0.2 °C -3.3 °C 1029 hPa Calm     80% 0 mm 0 W/m2
01:23 -0.3 °C -3.4 °C 1029 hPa Calm     80% 0 mm 0 W/m2
01:30 -0.4 °C -3.4 °C 1029 hPa Calm     80% 0 mm 0 W/m2
01:36 -0.4 °C -3.5 °C 1029 hPa Calm     80% 0 mm 0 W/m2
01:42 -0.5 °C -3.5 °C 1029 hPa Calm     80% 0 mm 0 W/m2
01:48 -0.6 °C -3.4 °C 1029 hPa Calm     81% 0 mm 0 W/m2
01:54 -0.6 °C -3.4 °C 1029 hPa Calm     81% 0 mm 0 W/m2
03:26 -1.2 °C -3.5 °C 1029 hPa Calm     84% 0 mm 0 W/m2
03:36 -1.2 °C -3.6 °C 1028.7 hPa Calm     84% 0 mm 0 W/m2
03:42 -1.1 °C -3.3 °C 1028.7 hPa Calm     85% 0 mm 0 W/m2
03:48 -1 °C -3.1 °C 1028.7 hPa Calm     86% 0 mm 0 W/m2
03:53 -1.1 °C -3.1 °C 1029 hPa Calm     86% 0 mm 0 W/m2
03:59 -1.2 °C -3.4 °C 1029 hPa Calm     85% 0 mm 0 W/m2
04:06 -1.3 °C -3.4 °C 1029 hPa Calm     86% 0 mm 0 W/m2
04:12 -1.4 °C -3.5 °C 1029 hPa Calm     86% 0 mm 0 W/m2
04:18 -1.4 °C -3.4 °C 1029 hPa Calm     86% 0 mm 0 W/m2
04:24 -1.4 °C -3.4 °C 1029 hPa Calm     86% 0 mm 0 W/m2
04:29 -1.3 °C -3.3 °C 1029 hPa Calm     86% 0 mm 0 W/m2
04:35 -1.3 °C -3.4 °C 1029 hPa Calm     86% 0 mm 0 W/m2
04:42 -1.3 °C -3.4 °C 1029 hPa Calm     86% 0 mm 0 W/m2
04:48 -1.4 °C -3.4 °C 1029 hPa Calm     86% 0 mm 0 W/m2
04:53 -1.3 °C -3.2 °C 1029 hPa Calm     87% 0 mm 0 W/m2
04:59 -1.3 °C -3.2 °C 1029 hPa Calm     87% 0 mm 0 W/m2
05:05 -1.5 °C -3.4 °C 1029 hPa Calm     87% 0 mm 0 W/m2
05:12 -1.7 °C -3.6 °C 1029 hPa Calm     87% 0 mm 0 W/m2
05:18 -1.7 °C -3.6 °C 1029 hPa Calm     87% 0 mm 0 W/m2
05:23 -1.8 °C -3.7 °C 1029 hPa Calm     87% 0 mm 0 W/m2
05:29 -1.9 °C -3.7 °C 1029 hPa Calm     88% 0 mm 0 W/m2
05:35 -2.1 °C -3.8 °C 1029 hPa Calm     88% 0 mm 0 W/m2
05:42 -2.1 °C -3.8 °C 1029 hPa Calm     88% 0 mm 0 W/m2
05:48 -2.2 °C -3.9 °C 1029 hPa Calm     88% 0 mm 0 W/m2
05:53 -2.3 °C -4.1 °C 1029.3 hPa Calm     88% 0 mm 0 W/m2
05:59 -2.4 °C -4.1 °C 1029.3 hPa Calm     88% 0 mm 0 W/m2
06:06 -2.3 °C -4 °C 1029.3 hPa Calm     88% 0 mm 0 W/m2
06:12 -2.2 °C -3.9 °C 1029.3 hPa Calm     88% 0 mm 0 W/m2
06:18 -1.9 °C -3.7 °C 1029.7 hPa Calm     88% 0 mm 0 W/m2
06:23 -1.9 °C -3.6 °C 1029.7 hPa Calm     88% 0 mm 0 W/m2
06:29 -1.8 °C -3.6 °C 1029.7 hPa Calm     88% 0 mm 7 W/m2
06:35 -1.8 °C -3.5 °C 1029.7 hPa Calm     88% 0 mm 9 W/m2
06:42 -1.9 °C -3.7 °C 1029.7 hPa Calm     88% 0 mm 12 W/m2
06:48 -2.1 °C -3.8 °C 1029.7 hPa Calm     88% 0 mm 16 W/m2
06:53 -2.1 °C -3.8 °C 1029.7 hPa Calm     88% 0 mm 19 W/m2
06:59 -2.1 °C -3.8 °C 1029.7 hPa Calm     88% 0 mm 32 W/m2
07:05 -1.9 °C -3.6 °C 1030 hPa Calm     88% 0 mm 65 W/m2
07:12 -1.4 °C -2.9 °C 1029.7 hPa Calm     89% 0 mm 56 W/m2
07:18 -1.2 °C -2.7 °C 1030 hPa Calm     89% 0 mm 44 W/m2
07:24 -0.9 °C -2.6 °C 1030 hPa Calm     88% 0 mm 30 W/m2
07:30 -0.7 °C -2.6 °C 1030 hPa Calm     87% 0 mm 35 W/m2
07:35 -0.3 °C -2.4 °C 1030 hPa Calm     86% 0 mm 139 W/m2
07:42 0.7 °C -1.7 °C 1030 hPa Calm     84% 0 mm 199 W/m2
07:48 1.8 °C -1.3 °C 1030 hPa Calm     80% 0 mm 218 W/m2
07:53 2.6 °C -2 °C 1030 hPa Calm     72% 0 mm 234 W/m2
07:59 3.1 °C -1.9 °C 1030 hPa Calm     70% 0 mm 232 W/m2
08:05 3.6 °C -1.7 °C 1030 hPa Calm     68% 0 mm 206 W/m2
08:12 4 °C -1.8 °C 1030 hPa Calm     66% 0 mm 237 W/m2
08:16 4.1 °C -2.2 °C 1030 hPa Calm     64% 0 mm 248 W/m2
08:22 4.2 °C -2 °C 1030 hPa Calm     64% 0 mm 292 W/m2
08:28 4.4 °C -1.8 °C 1030 hPa SE 1.6 km/h 1.6 km/h 64% 0 mm 297 W/m2
08:33 4.7 °C -1.6 °C 1030 hPa ESE 1.6 km/h 3.2 km/h 64% 0 mm 255 W/m2
08:39 4.9 °C -1.7 °C 1030 hPa ENE 1.6 km/h 1.6 km/h 62% 0 mm 281 W/m2
08:45 5.1 °C -2 °C 1030 hPa ENE 3.2 km/h 3.2 km/h 60% 0 mm 250 W/m2
08:52 5.5 °C -1.4 °C 1030 hPa ENE 1.6 km/h 1.6 km/h 61% 0 mm 352 W/m2
08:58 5.8 °C -1.6 °C 1030 hPa ENE 1.6 km/h 1.6 km/h 59% 0 mm 262 W/m2
09:03 5.9 °C -1.9 °C 1030.4 hPa NE 3.2 km/h 3.2 km/h 57% 0 mm 373 W/m2
09:10 6.4 °C -1 °C 1030.4 hPa ESE 1.6 km/h 4.8 km/h 59% 0 mm 355 W/m2
09:15 6.9 °C -0.6 °C 1030.4 hPa SSE 1.6 km/h 4.8 km/h 59% 0 mm 413 W/m2
09:22 7.4 °C -0.6 °C 1030.4 hPa SE 1.6 km/h 4.8 km/h 57% 0 mm 496 W/m2
09:28 7.8 °C -0.7 °C 1030 hPa SE 1.6 km/h 4.8 km/h 55% 0 mm 533 W/m2
09:34 8.2 °C -0.6 °C 1030 hPa Calm   1.6 km/h 54% 0 mm 548 W/m2
09:39 8.4 °C -0.9 °C 1030.4 hPa South 1.6 km/h 4.8 km/h 52% 0 mm 570 W/m2
09:45 8.6 °C -1.8 °C 1030.4 hPa South 3.2 km/h 4.8 km/h 48% 0 mm 585 W/m2
09:52 9.1 °C -1.4 °C 1030.4 hPa South 1.6 km/h 1.6 km/h 48% 0 mm 603 W/m2
09:58 9.8 °C 0.2 °C 1030.4 hPa Calm   1.6 km/h 51% 0 mm 622 W/m2
10:03 10.1 °C -1.9 °C 1030.4 hPa ESE 1.6 km/h 6.4 km/h 43% 0 mm 638 W/m2
10:09 10.2 °C -2.2 °C 1030.4 hPa ESE 1.6 km/h 4.8 km/h 42% 0 mm 656 W/m2
10:15 10.7 °C -0.2 °C 1030.4 hPa East 1.6 km/h 4.8 km/h 47% 0 mm 673 W/m2
10:22 10.6 °C -1.5 °C 1030.4 hPa SE 1.6 km/h 4.8 km/h 43% 0 mm 689 W/m2
10:28 10.8 °C -0.7 °C 1030.4 hPa SE 1.6 km/h 4.8 km/h 45% 0 mm 707 W/m2
10:33 11 °C -0.8 °C 1030 hPa SE 1.6 km/h 4.8 km/h 44% 0 mm 721 W/m2
10:39 11.6 °C -0.3 °C 1030 hPa SE 1.6 km/h 1.6 km/h 44% 0 mm 731 W/m2
10:45 11.6 °C -1.3 °C 1030 hPa East 1.6 km/h 1.6 km/h 41% 0 mm 749 W/m2
10:52 11.9 °C -1.7 °C 1030 hPa ENE 3.2 km/h 4.8 km/h 39% 0 mm 761 W/m2
10:58 11.8 °C -2.4 °C 1030 hPa NE 3.2 km/h 9.7 km/h 37% 0 mm 777 W/m2
11:03 12.1 °C -1.8 °C 1030 hPa NE 3.2 km/h 4.8 km/h 38% 0 mm 784 W/m2
11:09 12.6 °C -1.1 °C 1030 hPa NNE 1.6 km/h 1.6 km/h 39% 0 mm 796 W/m2
11:15 12.2 °C -0.3 °C 1030 hPa East 1.6 km/h 3.2 km/h 42% 0 mm 809 W/m2
11:22 12.4 °C -1.2 °C 1030 hPa NNW 3.2 km/h 6.4 km/h 39% 0 mm 814 W/m2
11:28 12.7 °C -0.6 °C 1030 hPa ENE 4.8 km/h 8 km/h 40% 0 mm 812 W/m2
11:33 12.6 °C -1.4 °C 1030 hPa North 4.8 km/h 6.4 km/h 38% 0 mm 821 W/m2
11:39 12.8 °C -1.6 °C 1030 hPa NNW 3.2 km/h 3.2 km/h 37% 0 mm 831 W/m2
11:45 12.7 °C -1.3 °C 1029.7 hPa SE 1.6 km/h 3.2 km/h 38% 0 mm 837 W/m2
11:52 12.2 °C -3.3 °C 1029.7 hPa ENE 4.8 km/h 4.8 km/h 34% 0 mm 853 W/m2
11:58 12.3 °C -2.7 °C 1029.7 hPa SW 3.2 km/h 4.8 km/h 35% 0 mm 860 W/m2
12:03 13.1 °C -2 °C 1029.7 hPa WSW 1.6 km/h 3.2 km/h 35% 0 mm 861 W/m2
12:09 13.4 °C -2.9 °C 1029.7 hPa NNE 1.6 km/h 4.8 km/h 32% 0 mm 879 W/m2
12:15 13.4 °C -2.9 °C 1029.3 hPa North 3.2 km/h 6.4 km/h 32% 0 mm 877 W/m2
12:22 13.4 °C -2.1 °C 1029.3 hPa North 3.2 km/h 3.2 km/h 34% 0 mm 882 W/m2
12:28 14.2 °C 1.1 °C 1029 hPa North 1.6 km/h 3.2 km/h 41% 0 mm 886 W/m2
12:33 13.4 °C -3.4 °C 1029 hPa ENE 3.2 km/h 4.8 km/h 31% 0 mm 889 W/m2
12:39 13.8 °C -1.4 °C 1029 hPa North 3.2 km/h 3.2 km/h 35% 0 mm 891 W/m2
12:45 13.8 °C -1.8 °C 1029 hPa NNE 1.6 km/h 8 km/h 34% 0 mm 888 W/m2
12:52 13.4 °C -2.6 °C 1029 hPa ENE 3.2 km/h 3.2 km/h 33% 0 mm 884 W/m2
12:58 13.7 °C -0.8 °C 1029 hPa NNW 4.8 km/h 12.9 km/h 37% 0 mm 853 W/m2
13:03 13.8 °C -3.5 °C 1029 hPa NNE 6.4 km/h 8 km/h 30% 0 mm 888 W/m2
13:09 13.9 °C -4.8 °C 1029 hPa NNW 4.8 km/h 4.8 km/h 27% 0 mm 881 W/m2
13:15 13.8 °C -4 °C 1028.7 hPa NE 4.8 km/h 8 km/h 29% 0 mm 886 W/m2
13:22 13.7 °C -4.5 °C 1028.7 hPa ENE 4.8 km/h 6.4 km/h 28% 0 mm 895 W/m2
13:28 14 °C -6.8 °C 1028.7 hPa WNW 4.8 km/h 8 km/h 23% 0 mm 893 W/m2
13:36 14.4 °C -3.9 °C 1028.7 hPa NW 4.8 km/h 6.4 km/h 28% 0 mm 870 W/m2
13:42 14.3 °C -5.5 °C 1028.3 hPa East 3.2 km/h 6.4 km/h 25% 0 mm 881 W/m2
13:48 14.4 °C -2.1 °C 1028.3 hPa SSE 3.2 km/h 6.4 km/h 32% 0 mm 868 W/m2
13:53 14.4 °C -4.4 °C 1028.3 hPa ENE 4.8 km/h 8 km/h 27% 0 mm 874 W/m2
13:59 14.2 °C -5.1 °C 1028.3 hPa East 4.8 km/h 4.8 km/h 26% 0 mm 877 W/m2
14:06 14.3 °C -2.2 °C 1028.3 hPa NNW 1.6 km/h 4.8 km/h 32% 0 mm 868 W/m2
14:12 14.9 °C -3.5 °C 1028.3 hPa NNE 3.2 km/h 4.8 km/h 28% 0 mm 863 W/m2
14:18 15.1 °C -3.3 °C 1028 hPa NNE 3.2 km/h 4.8 km/h 28% 0 mm 854 W/m2
14:24 14.9 °C -3.9 °C 1028 hPa NW 4.8 km/h 6.4 km/h 27% 0 mm 846 W/m2
14:29 14.9 °C -3 °C 1028 hPa ENE 4.8 km/h 6.4 km/h 29% 0 mm 837 W/m2
14:35 14.9 °C -3.9 °C 1028 hPa ENE 3.2 km/h 6.4 km/h 27% 0 mm 830 W/m2
14:42 15.1 °C -3.3 °C 1027.7 hPa SSE 3.2 km/h 8 km/h 28% 0 mm 821 W/m2
14:48 14.6 °C -5.2 °C 1027.7 hPa ESE 6.4 km/h 8 km/h 25% 0 mm 812 W/m2
14:53 15.2 °C -1 °C 1027.3 hPa SSE 3.2 km/h 6.4 km/h 33% 0 mm 803 W/m2
14:59 15.7 °C -3.3 °C 1027.3 hPa WNW 3.2 km/h 6.4 km/h 27% 0 mm 793 W/m2
15:05 15.8 °C -2.7 °C 1027.3 hPa WSW 4.8 km/h 9.7 km/h 28% 0 mm 782 W/m2
15:12 15.6 °C -2.8 °C 1027.3 hPa WNW 4.8 km/h 4.8 km/h 28% 0 mm 770 W/m2
15:18 15.9 °C -0.3 °C 1027.3 hPa SW 3.2 km/h 4.8 km/h 33% 0 mm 758 W/m2
15:23 15.8 °C -2.7 °C 1027.3 hPa NW 3.2 km/h 11.3 km/h 28% 0 mm 745 W/m2
15:29 15.8 °C -4.7 °C 1027.3 hPa NNE 3.2 km/h 4.8 km/h 24% 0 mm 733 W/m2
15:36 15.1 °C -4.8 °C 1027.3 hPa ENE 3.2 km/h 4.8 km/h 25% 0 mm 719 W/m2
15:42 15.4 °C -4.1 °C 1027 hPa East 1.6 km/h 3.2 km/h 26% 0 mm 708 W/m2
15:48 15.6 °C -4.9 °C 1027 hPa NNE 3.2 km/h 8 km/h 24% 0 mm 693 W/m2
15:53 15.9 °C -4.2 °C 1027 hPa WSW 4.8 km/h 4.8 km/h 25% 0 mm 677 W/m2
16:00 16.4 °C -4.3 °C 1027 hPa SSE 3.2 km/h 8 km/h 24% 0 mm 661 W/m2
16:06 16.1 °C -3.5 °C 1027 hPa West 3.2 km/h 8 km/h 26% 0 mm 647 W/m2
16:12 16.4 °C -2.6 °C 1027 hPa NW 3.2 km/h 4.8 km/h 27% 0 mm 629 W/m2
16:18 16.3 °C -3.2 °C 1027 hPa SW 3.2 km/h 4.8 km/h 26% 0 mm 612 W/m2
16:23 16.8 °C -1.8 °C 1026.6 hPa NW 3.2 km/h 8 km/h 28% 0 mm 596 W/m2
16:29 16.4 °C -2.6 °C 1026.6 hPa WSW 3.2 km/h 3.2 km/h 27% 0 mm 580 W/m2
16:35 16.4 °C -4.2 °C 1026.6 hPa NW 1.6 km/h 3.2 km/h 24% 0 mm 564 W/m2
16:42 16 °C -3 °C 1026.6 hPa WNW 4.8 km/h 8 km/h 27% 0 mm 547 W/m2
16:48 15.8 °C -2.7 °C 1026.6 hPa NNW 6.4 km/h 9.7 km/h 28% 0 mm 526 W/m2
16:53 15.8 °C -3.2 °C 1026.3 hPa NW 6.4 km/h 16.1 km/h 27% 0 mm 512 W/m2
17:00 15.7 °C -2.3 °C 1026.3 hPa NNW 6.4 km/h 6.4 km/h 29% 0 mm 492 W/m2
17:05 15.6 °C -2.8 °C 1026.3 hPa WNW 4.8 km/h 11.3 km/h 28% 0 mm 473 W/m2
17:12 15.9 °C -2.6 °C 1026.3 hPa WNW 4.8 km/h 4.8 km/h 28% 0 mm 454 W/m2
17:18 15.9 °C -3.6 °C 1026.3 hPa NNW 4.8 km/h 6.4 km/h 26% 0 mm 436 W/m2
17:23 15.8 °C -3.2 °C 1026.3 hPa NNW 6.4 km/h 6.4 km/h 27% 0 mm 420 W/m2
17:30 15.6 °C -3.3 °C 1026.3 hPa NW 4.8 km/h 8 km/h 27% 0 mm 401 W/m2
17:35 15.5 °C -3.9 °C 1026.3 hPa NW 6.4 km/h 8 km/h 26% 0 mm 339 W/m2
17:42 15.1 °C -2.4 °C 1026.3 hPa NNW 8 km/h 8 km/h 30% 0 mm 295 W/m2
17:48 15.1 °C -4.3 °C 1026.3 hPa North 6.4 km/h 9.7 km/h 26% 0 mm 237 W/m2
17:53 15.1 °C -4.3 °C 1026.3 hPa North 6.4 km/h 8 km/h 26% 0 mm 301 W/m2
17:59 15.1 °C -4.8 °C 1026.3 hPa North 6.4 km/h 9.7 km/h 25% 0 mm 271 W/m2
18:05 15.1 °C -3.8 °C 1026.3 hPa NNW 6.4 km/h 9.7 km/h 27% 0 mm 223 W/m2
18:12 14.9 °C -3.9 °C 1026.3 hPa North 6.4 km/h 6.4 km/h 27% 0 mm 125 W/m2
18:18 14.9 °C -2.9 °C 1026.3 hPa NW 4.8 km/h 6.4 km/h 29% 0 mm 199 W/m2
18:23 14.9 °C -3.9 °C 1026.3 hPa NNW 4.8 km/h 11.3 km/h 27% 0 mm 141 W/m2
18:30 14.7 °C -4.1 °C 1026.3 hPa NW 6.4 km/h 6.4 km/h 27% 0 mm 102 W/m2
18:35 14.6 °C -4.7 °C 1026.3 hPa North 6.4 km/h 6.4 km/h 26% 0 mm 162 W/m2
18:42 14.6 °C -3.3 °C 1026.3 hPa NNW 4.8 km/h 4.8 km/h 29% 0 mm 88 W/m2
18:48 14.3 °C -3.9 °C 1026.3 hPa North 4.8 km/h 4.8 km/h 28% 0 mm 84 W/m2
18:54 14 °C -4.7 °C 1026.3 hPa NNW 6.4 km/h 8 km/h 27% 0 mm 95 W/m2
18:59 13.8 °C -4.4 °C 1026.3 hPa North 8 km/h 8 km/h 28% 0 mm 84 W/m2
19:05 13.4 °C -4.3 °C 1026.3 hPa North 6.4 km/h 8 km/h 29% 0 mm 28 W/m2
19:12 13.2 °C -4.1 °C 1026.3 hPa NNW 4.8 km/h 6.4 km/h 30% 0 mm 25 W/m2
19:18 12.9 °C -4.7 °C 1026.3 hPa NNW 4.8 km/h 6.4 km/h 29% 0 mm 21 W/m2
19:23 12.7 °C -4.9 °C 1026.3 hPa NNW 3.2 km/h 4.8 km/h 29% 0 mm 19 W/m2
19:29 12.4 °C -4.7 °C 1026.3 hPa NNW 3.2 km/h 6.4 km/h 30% 0 mm 16 W/m2
19:35 12.3 °C -5.2 °C 1026.3 hPa NNW 4.8 km/h 8 km/h 29% 0 mm 12 W/m2
19:42 12.2 °C -4.9 °C 1026.6 hPa NNW 3.2 km/h 4.8 km/h 30% 0 mm 9 W/m2
19:48 11.9 °C -5.6 °C 1026.6 hPa North 3.2 km/h 4.8 km/h 29% 0 mm 5 W/m2
19:53 11.8 °C -6.2 °C 1026.6 hPa North 3.2 km/h 4.8 km/h 28% 0 mm 0 W/m2
20:00 11.6 °C -4.6 °C 1026.3 hPa North 3.2 km/h 3.2 km/h 32% 0 mm 0 W/m2
20:05 11.3 °C -6.6 °C 1026.3 hPa North 3.2 km/h 6.4 km/h 28% 0 mm 0 W/m2
20:12 11.1 °C -5.9 °C 1026.6 hPa North 1.6 km/h 3.2 km/h 30% 0 mm 0 W/m2
20:18 10.8 °C -4.8 °C 1026.6 hPa North 1.6 km/h 3.2 km/h 33% 0 mm 0 W/m2
20:23 10.6 °C -3.9 °C 1026.6 hPa Calm   1.6 km/h 36% 0 mm 0 W/m2
20:29 10.3 °C -3.4 °C 1026.6 hPa Calm     38% 0 mm 0 W/m2
20:35 9.9 °C -3.1 °C 1027 hPa Calm     40% 0 mm 0 W/m2
20:42 9.6 °C -4.1 °C 1026.6 hPa Calm     38% 0 mm 0 W/m2
20:48 9.2 °C -1.9 °C 1026.6 hPa Calm     46% 0 mm 0 W/m2
20:54 8.8 °C -3.1 °C 1027 hPa Calm     43% 0 mm 0 W/m2
20:59 8.5 °C -4 °C 1027 hPa Calm     41% 0 mm 0 W/m2
21:05 8.1 °C -1.2 °C 1026.6 hPa Calm     52% 0 mm 0 W/m2
21:12 7.7 °C -2.4 °C 1027 hPa Calm     49% 0 mm 0 W/m2
21:18 7.4 °C -2.3 °C 1027 hPa Calm     50% 0 mm 0 W/m2
21:23 7.3 °C -2.4 °C 1027 hPa Calm     50% 0 mm 0 W/m2
21:29 6.9 °C -2 °C 1027 hPa Calm     53% 0 mm 0 W/m2
21:35 6.7 °C -2.2 °C 1027 hPa Calm     53% 0 mm 0 W/m2
21:42 6.6 °C -2.1 °C 1027 hPa Calm     54% 0 mm 0 W/m2
21:48 6.4 °C -2.7 °C 1027 hPa Calm     52% 0 mm 0 W/m2
21:53 6.2 °C -2.9 °C 1026.6 hPa Calm     52% 0 mm 0 W/m2
21:59 6.1 °C -2.6 °C 1026.6 hPa Calm     54% 0 mm 0 W/m2
22:05 5.9 °C -2.7 °C 1026.6 hPa Calm     54% 0 mm 0 W/m2
22:12 5.6 °C -2.5 °C 1026.6 hPa Calm     56% 0 mm 0 W/m2
22:18 5.4 °C -2.7 °C 1026.6 hPa Calm     56% 0 mm 0 W/m2
22:23 5.3 °C -3.3 °C 1026.6 hPa Calm     54% 0 mm 0 W/m2
22:29 5.1 °C -2.6 °C 1026.6 hPa Calm     58% 0 mm 0 W/m2
22:35 4.9 °C -2.9 °C 1026.3 hPa Calm     57% 0 mm 0 W/m2
22:41 4.7 °C -3.1 °C 1026.3 hPa Calm     57% 0 mm 0 W/m2
22:48 4.6 °C -2.5 °C 1026.6 hPa Calm     60% 0 mm 0 W/m2
22:53 4.4 °C -2.2 °C 1026.6 hPa Calm     62% 0 mm 0 W/m2
23:00 4.3 °C -2.2 °C 1026.6 hPa Calm     63% 0 mm 0 W/m2
23:05 4.1 °C -2.1 °C 1026.3 hPa Calm     64% 0 mm 0 W/m2
23:12 3.9 °C -2.4 °C 1026.3 hPa Calm     63% 0 mm 0 W/m2
23:18 3.9 °C -3.1 °C 1026.3 hPa Calm     60% 0 mm 0 W/m2
23:24 4 °C -1.6 °C 1026.3 hPa Calm     67% 0 mm 0 W/m2
23:29 4.1 °C -0.9 °C 1026.3 hPa Calm     70% 0 mm 0 W/m2
23:35 4.1 °C -0.7 °C 1026.3 hPa Calm     71% 0 mm 0 W/m2
23:42 3.9 °C -0.9 °C 1026.3 hPa Calm     71% 0 mm 0 W/m2
23:48 3.7 °C -1.1 °C 1026.3 hPa Calm     71% 0 mm 0 W/m2
23:54 3.7 °C -0.7 °C 1026.3 hPa Calm     73% 0 mm 0 W/m2
23:59 3.7 °C -0.6 °C 1026.3 hPa Calm     74% 0 mm 0 W/m2
Country Meadow, Clay, NY, USA
Compliments of Weather Underground - 2 mb